sensor_id;sensor_type;location;lat;lon;timestamp;P1;durP1;ratioP1;P2;durP2;ratioP2
34491;SDS011;20737;49.908;8.126;2022-07-06T00:02:17;3.15;;;2.58;;
34491;SDS011;20737;49.908;8.126;2022-07-06T00:04:44;3.92;;;2.38;;
34491;SDS011;20737;49.908;8.126;2022-07-06T00:07:12;2.50;;;2.30;;
34491;SDS011;20737;49.908;8.126;2022-07-06T00:09:40;4.75;;;2.60;;
34491;SDS011;20737;49.908;8.126;2022-07-06T00:12:07;5.93;;;2.45;;
34491;SDS011;20737;49.908;8.126;2022-07-06T00:14:34;2.22;;;2.03;;
34491;SDS011;20737;49.908;8.126;2022-07-06T00:17:01;3.63;;;2.47;;
34491;SDS011;20737;49.908;8.126;2022-07-06T00:19:28;2.38;;;2.10;;
34491;SDS011;20737;49.908;8.126;2022-07-06T00:21:55;4.70;;;2.45;;
34491;SDS011;20737;49.908;8.126;2022-07-06T00:24:23;3.58;;;2.20;;
34491;SDS011;20737;49.908;8.126;2022-07-06T00:26:50;4.05;;;2.30;;
34491;SDS011;20737;49.908;8.126;2022-07-06T00:29:17;5.60;;;2.50;;
34491;SDS011;20737;49.908;8.126;2022-07-06T00:31:44;4.47;;;3.00;;
34491;SDS011;20737;49.908;8.126;2022-07-06T00:34:11;2.17;;;1.98;;
34491;SDS011;20737;49.908;8.126;2022-07-06T00:36:38;2.78;;;1.90;;
34491;SDS011;20737;49.908;8.126;2022-07-06T00:39:04;3.53;;;2.20;;
34491;SDS011;20737;49.908;8.126;2022-07-06T00:41:32;2.60;;;1.88;;
34491;SDS011;20737;49.908;8.126;2022-07-06T00:43:59;5.80;;;2.35;;
34491;SDS011;20737;49.908;8.126;2022-07-06T00:46:27;6.68;;;2.67;;
34491;SDS011;20737;49.908;8.126;2022-07-06T00:48:56;4.30;;;2.05;;
34491;SDS011;20737;49.908;8.126;2022-07-06T00:51:24;3.45;;;2.45;;
34491;SDS011;20737;49.908;8.126;2022-07-06T00:53:54;3.33;;;1.80;;
34491;SDS011;20737;49.908;8.126;2022-07-06T00:56:22;4.40;;;2.03;;
34491;SDS011;20737;49.908;8.126;2022-07-06T00:58:52;2.10;;;1.88;;
34491;SDS011;20737;49.908;8.126;2022-07-06T01:01:19;3.10;;;2.10;;
34491;SDS011;20737;49.908;8.126;2022-07-06T01:03:46;3.30;;;2.00;;
34491;SDS011;20737;49.908;8.126;2022-07-06T01:06:13;3.55;;;1.98;;
34491;SDS011;20737;49.908;8.126;2022-07-06T01:08:40;2.22;;;1.58;;
34491;SDS011;20737;49.908;8.126;2022-07-06T01:11:07;4.97;;;1.70;;
34491;SDS011;20737;49.908;8.126;2022-07-06T01:13:34;3.22;;;2.20;;
34491;SDS011;20737;49.908;8.126;2022-07-06T01:16:02;4.15;;;1.83;;
34491;SDS011;20737;49.908;8.126;2022-07-06T01:18:29;3.42;;;1.55;;
34491;SDS011;20737;49.908;8.126;2022-07-06T01:21:10;2.90;;;1.70;;
34491;SDS011;20737;49.908;8.126;2022-07-06T01:23:38;4.80;;;2.03;;
34491;SDS011;20737;49.908;8.126;2022-07-06T01:26:08;3.50;;;1.95;;
34491;SDS011;20737;49.908;8.126;2022-07-06T01:28:36;5.78;;;1.80;;
34491;SDS011;20737;49.908;8.126;2022-07-06T01:31:03;1.95;;;1.75;;
34491;SDS011;20737;49.908;8.126;2022-07-06T01:33:29;9.27;;;2.33;;
34491;SDS011;20737;49.908;8.126;2022-07-06T01:35:56;2.92;;;1.88;;
34491;SDS011;20737;49.908;8.126;2022-07-06T01:38:25;3.85;;;1.85;;
34491;SDS011;20737;49.908;8.126;2022-07-06T01:40:51;1.67;;;1.55;;
34491;SDS011;20737;49.908;8.126;2022-07-06T01:43:18;2.30;;;1.77;;
34491;SDS011;20737;49.908;8.126;2022-07-06T01:45:45;2.83;;;1.67;;
34491;SDS011;20737;49.908;8.126;2022-07-06T01:48:12;1.88;;;1.60;;
34491;SDS011;20737;49.908;8.126;2022-07-06T01:50:38;2.35;;;1.70;;
34491;SDS011;20737;49.908;8.126;2022-07-06T01:53:05;4.13;;;1.90;;
34491;SDS011;20737;49.908;8.126;2022-07-06T01:55:33;3.08;;;1.83;;
34491;SDS011;20737;49.908;8.126;2022-07-06T01:58:00;3.22;;;2.13;;
34491;SDS011;20737;49.908;8.126;2022-07-06T02:00:27;4.43;;;1.88;;
34491;SDS011;20737;49.908;8.126;2022-07-06T02:03:04;2.65;;;1.60;;
34491;SDS011;20737;49.908;8.126;2022-07-06T02:05:38;2.30;;;1.65;;
34491;SDS011;20737;49.908;8.126;2022-07-06T02:08:05;3.97;;;1.80;;
34491;SDS011;20737;49.908;8.126;2022-07-06T02:10:33;2.20;;;1.83;;
34491;SDS011;20737;49.908;8.126;2022-07-06T02:13:00;2.35;;;1.50;;
34491;SDS011;20737;49.908;8.126;2022-07-06T02:15:27;4.68;;;1.70;;
34491;SDS011;20737;49.908;8.126;2022-07-06T02:17:54;5.90;;;2.08;;
34491;SDS011;20737;49.908;8.126;2022-07-06T02:20:21;2.53;;;1.83;;
34491;SDS011;20737;49.908;8.126;2022-07-06T02:22:47;2.22;;;1.70;;
34491;SDS011;20737;49.908;8.126;2022-07-06T02:25:14;2.97;;;1.80;;
34491;SDS011;20737;49.908;8.126;2022-07-06T02:27:42;2.20;;;2.00;;
34491;SDS011;20737;49.908;8.126;2022-07-06T02:30:09;2.08;;;1.90;;
34491;SDS011;20737;49.908;8.126;2022-07-06T02:32:36;2.28;;;1.98;;
34491;SDS011;20737;49.908;8.126;2022-07-06T02:35:03;2.35;;;1.67;;
34491;SDS011;20737;49.908;8.126;2022-07-06T02:37:30;6.03;;;1.95;;
34491;SDS011;20737;49.908;8.126;2022-07-06T02:39:57;2.10;;;1.88;;
34491;SDS011;20737;49.908;8.126;2022-07-06T02:42:24;2.65;;;2.00;;
34491;SDS011;20737;49.908;8.126;2022-07-06T02:44:53;3.00;;;1.98;;
34491;SDS011;20737;49.908;8.126;2022-07-06T02:47:20;3.20;;;1.88;;
34491;SDS011;20737;49.908;8.126;2022-07-06T02:49:47;1.80;;;1.70;;
34491;SDS011;20737;49.908;8.126;2022-07-06T02:52:13;3.55;;;1.83;;
34491;SDS011;20737;49.908;8.126;2022-07-06T02:54:40;2.55;;;2.03;;
34491;SDS011;20737;49.908;8.126;2022-07-06T02:57:07;1.98;;;1.70;;
34491;SDS011;20737;49.908;8.126;2022-07-06T02:59:34;3.33;;;2.17;;
34491;SDS011;20737;49.908;8.126;2022-07-06T03:02:03;4.43;;;2.15;;
34491;SDS011;20737;49.908;8.126;2022-07-06T03:04:29;5.40;;;2.00;;
34491;SDS011;20737;49.908;8.126;2022-07-06T03:06:56;4.30;;;1.90;;
34491;SDS011;20737;49.908;8.126;2022-07-06T03:09:23;2.35;;;2.00;;
34491;SDS011;20737;49.908;8.126;2022-07-06T03:11:50;2.92;;;2.22;;
34491;SDS011;20737;49.908;8.126;2022-07-06T03:14:17;2.90;;;1.90;;
34491;SDS011;20737;49.908;8.126;2022-07-06T03:16:44;3.08;;;2.08;;
34491;SDS011;20737;49.908;8.126;2022-07-06T03:19:12;2.28;;;1.80;;
34491;SDS011;20737;49.908;8.126;2022-07-06T03:21:39;3.00;;;1.90;;
34491;SDS011;20737;49.908;8.126;2022-07-06T03:24:06;2.58;;;2.28;;
34491;SDS011;20737;49.908;8.126;2022-07-06T03:26:32;2.72;;;2.05;;
34491;SDS011;20737;49.908;8.126;2022-07-06T03:28:59;2.15;;;1.85;;
34491;SDS011;20737;49.908;8.126;2022-07-06T03:31:26;4.60;;;2.20;;
34491;SDS011;20737;49.908;8.126;2022-07-06T03:33:53;3.25;;;2.40;;
34491;SDS011;20737;49.908;8.126;2022-07-06T03:36:21;3.25;;;2.03;;
34491;SDS011;20737;49.908;8.126;2022-07-06T03:38:48;4.63;;;2.25;;
34491;SDS011;20737;49.908;8.126;2022-07-06T03:41:15;4.43;;;2.03;;
34491;SDS011;20737;49.908;8.126;2022-07-06T03:43:41;4.35;;;2.40;;
34491;SDS011;20737;49.908;8.126;2022-07-06T03:46:08;3.67;;;2.63;;
34491;SDS011;20737;49.908;8.126;2022-07-06T03:48:35;2.53;;;2.03;;
34491;SDS011;20737;49.908;8.126;2022-07-06T03:51:02;3.88;;;2.40;;
34491;SDS011;20737;49.908;8.126;2022-07-06T03:53:30;4.88;;;2.20;;
34491;SDS011;20737;49.908;8.126;2022-07-06T03:55:57;4.15;;;2.22;;
34491;SDS011;20737;49.908;8.126;2022-07-06T03:58:41;3.65;;;2.40;;
34491;SDS011;20737;49.908;8.126;2022-07-06T04:01:08;3.28;;;2.30;;
34491;SDS011;20737;49.908;8.126;2022-07-06T04:03:35;3.00;;;2.03;;
34491;SDS011;20737;49.908;8.126;2022-07-06T04:06:02;4.00;;;1.85;;
34491;SDS011;20737;49.908;8.126;2022-07-06T04:08:28;5.40;;;2.10;;
34491;SDS011;20737;49.908;8.126;2022-07-06T04:10:56;3.80;;;2.15;;
34491;SDS011;20737;49.908;8.126;2022-07-06T04:13:23;4.65;;;2.10;;
34491;SDS011;20737;49.908;8.126;2022-07-06T04:15:51;2.78;;;1.50;;
34491;SDS011;20737;49.908;8.126;2022-07-06T04:18:17;3.45;;;1.98;;
34491;SDS011;20737;49.908;8.126;2022-07-06T04:20:44;4.57;;;1.77;;
34491;SDS011;20737;49.908;8.126;2022-07-06T04:23:11;5.22;;;2.22;;
34491;SDS011;20737;49.908;8.126;2022-07-06T04:25:39;6.30;;;2.13;;
34491;SDS011;20737;49.908;8.126;2022-07-06T04:28:06;4.32;;;2.30;;
34491;SDS011;20737;49.908;8.126;2022-07-06T04:30:33;4.38;;;2.10;;
34491;SDS011;20737;49.908;8.126;2022-07-06T04:33:00;4.10;;;1.77;;
34491;SDS011;20737;49.908;8.126;2022-07-06T04:35:27;3.40;;;1.65;;
34491;SDS011;20737;49.908;8.126;2022-07-06T04:37:54;2.65;;;1.83;;
34491;SDS011;20737;49.908;8.126;2022-07-06T04:40:21;4.93;;;2.40;;
34491;SDS011;20737;49.908;8.126;2022-07-06T04:42:49;5.05;;;2.30;;
34491;SDS011;20737;49.908;8.126;2022-07-06T04:45:16;5.07;;;2.08;;
34491;SDS011;20737;49.908;8.126;2022-07-06T04:47:42;3.47;;;1.75;;
34491;SDS011;20737;49.908;8.126;2022-07-06T04:50:09;3.00;;;1.90;;
34491;SDS011;20737;49.908;8.126;2022-07-06T04:52:37;4.68;;;3.25;;
34491;SDS011;20737;49.908;8.126;2022-07-06T04:55:04;3.22;;;2.05;;
34491;SDS011;20737;49.908;8.126;2022-07-06T04:57:33;6.18;;;2.38;;
34491;SDS011;20737;49.908;8.126;2022-07-06T05:00:01;4.72;;;1.95;;
34491;SDS011;20737;49.908;8.126;2022-07-06T05:02:29;3.22;;;1.95;;
34491;SDS011;20737;49.908;8.126;2022-07-06T05:04:56;4.88;;;1.88;;
34491;SDS011;20737;49.908;8.126;2022-07-06T05:07:23;4.68;;;2.65;;
34491;SDS011;20737;49.908;8.126;2022-07-06T05:09:53;3.55;;;2.40;;
34491;SDS011;20737;49.908;8.126;2022-07-06T05:12:20;6.05;;;2.75;;
34491;SDS011;20737;49.908;8.126;2022-07-06T05:14:46;3.85;;;2.20;;
34491;SDS011;20737;49.908;8.126;2022-07-06T05:17:14;5.28;;;2.30;;
34491;SDS011;20737;49.908;8.126;2022-07-06T05:19:41;3.17;;;2.03;;
34491;SDS011;20737;49.908;8.126;2022-07-06T05:22:08;4.38;;;2.10;;
34491;SDS011;20737;49.908;8.126;2022-07-06T05:24:35;4.82;;;2.72;;
34491;SDS011;20737;49.908;8.126;2022-07-06T05:27:02;3.60;;;2.25;;
34491;SDS011;20737;49.908;8.126;2022-07-06T05:29:29;8.60;;;2.40;;
34491;SDS011;20737;49.908;8.126;2022-07-06T05:31:56;3.28;;;2.35;;
34491;SDS011;20737;49.908;8.126;2022-07-06T05:34:24;4.25;;;2.38;;
34491;SDS011;20737;49.908;8.126;2022-07-06T05:36:51;3.08;;;1.95;;
34491;SDS011;20737;49.908;8.126;2022-07-06T05:39:17;6.50;;;2.20;;
34491;SDS011;20737;49.908;8.126;2022-07-06T05:41:46;5.32;;;1.98;;
34491;SDS011;20737;49.908;8.126;2022-07-06T05:44:13;4.38;;;2.30;;
34491;SDS011;20737;49.908;8.126;2022-07-06T05:46:39;3.75;;;1.92;;
34491;SDS011;20737;49.908;8.126;2022-07-06T05:49:06;2.50;;;1.70;;
34491;SDS011;20737;49.908;8.126;2022-07-06T05:51:52;4.38;;;1.75;;
34491;SDS011;20737;49.908;8.126;2022-07-06T05:54:19;4.78;;;2.33;;
34491;SDS011;20737;49.908;8.126;2022-07-06T05:56:46;2.78;;;1.60;;
34491;SDS011;20737;49.908;8.126;2022-07-06T05:59:12;2.65;;;1.70;;
34491;SDS011;20737;49.908;8.126;2022-07-06T06:01:39;2.90;;;1.95;;
34491;SDS011;20737;49.908;8.126;2022-07-06T06:04:06;2.30;;;1.50;;
34491;SDS011;20737;49.908;8.126;2022-07-06T06:06:33;3.88;;;1.83;;
34491;SDS011;20737;49.908;8.126;2022-07-06T06:09:01;1.67;;;1.58;;
34491;SDS011;20737;49.908;8.126;2022-07-06T06:11:28;3.17;;;1.88;;
34491;SDS011;20737;49.908;8.126;2022-07-06T06:13:55;4.50;;;1.85;;
34491;SDS011;20737;49.908;8.126;2022-07-06T06:16:21;6.45;;;1.70;;
34491;SDS011;20737;49.908;8.126;2022-07-06T06:18:48;3.10;;;1.45;;
34491;SDS011;20737;49.908;8.126;2022-07-06T06:21:15;6.45;;;1.65;;
34491;SDS011;20737;49.908;8.126;2022-07-06T06:23:42;1.70;;;1.60;;
34491;SDS011;20737;49.908;8.126;2022-07-06T06:26:10;2.58;;;1.42;;
34491;SDS011;20737;49.908;8.126;2022-07-06T06:28:39;9.25;;;2.10;;
34491;SDS011;20737;49.908;8.126;2022-07-06T06:31:06;7.35;;;1.75;;
34491;SDS011;20737;49.908;8.126;2022-07-06T06:33:33;2.67;;;1.58;;
34491;SDS011;20737;49.908;8.126;2022-07-06T06:36:00;2.40;;;1.73;;
34491;SDS011;20737;49.908;8.126;2022-07-06T06:38:27;2.00;;;1.60;;
34491;SDS011;20737;49.908;8.126;2022-07-06T06:40:54;6.28;;;2.25;;
34491;SDS011;20737;49.908;8.126;2022-07-06T06:43:24;5.20;;;1.60;;
34491;SDS011;20737;49.908;8.126;2022-07-06T06:45:51;5.75;;;1.92;;
34491;SDS011;20737;49.908;8.126;2022-07-06T06:48:19;2.60;;;1.80;;
34491;SDS011;20737;49.908;8.126;2022-07-06T06:50:46;3.65;;;1.95;;
34491;SDS011;20737;49.908;8.126;2022-07-06T06:53:12;4.63;;;1.65;;
34491;SDS011;20737;49.908;8.126;2022-07-06T06:55:39;2.55;;;1.92;;
34491;SDS011;20737;49.908;8.126;2022-07-06T06:58:06;4.30;;;2.17;;
34491;SDS011;20737;49.908;8.126;2022-07-06T07:00:34;3.53;;;1.73;;
34491;SDS011;20737;49.908;8.126;2022-07-06T07:03:01;5.95;;;1.70;;
34491;SDS011;20737;49.908;8.126;2022-07-06T07:05:28;4.38;;;1.92;;
34491;SDS011;20737;49.908;8.126;2022-07-06T07:07:55;5.43;;;1.80;;
34491;SDS011;20737;49.908;8.126;2022-07-06T07:10:24;2.83;;;1.60;;
34491;SDS011;20737;49.908;8.126;2022-07-06T07:12:51;4.93;;;2.25;;
34491;SDS011;20737;49.908;8.126;2022-07-06T07:15:18;4.68;;;1.90;;
34491;SDS011;20737;49.908;8.126;2022-07-06T07:17:46;7.53;;;2.35;;
34491;SDS011;20737;49.908;8.126;2022-07-06T07:20:13;4.40;;;1.98;;
34491;SDS011;20737;49.908;8.126;2022-07-06T07:22:40;2.55;;;1.98;;
34491;SDS011;20737;49.908;8.126;2022-07-06T07:25:07;3.40;;;2.10;;
34491;SDS011;20737;49.908;8.126;2022-07-06T07:27:34;5.00;;;2.00;;
34491;SDS011;20737;49.908;8.126;2022-07-06T07:30:01;2.47;;;1.90;;
34491;SDS011;20737;49.908;8.126;2022-07-06T07:32:28;4.50;;;2.03;;
34491;SDS011;20737;49.908;8.126;2022-07-06T07:34:56;7.25;;;2.40;;
34491;SDS011;20737;49.908;8.126;2022-07-06T07:37:23;2.92;;;1.83;;
34491;SDS011;20737;49.908;8.126;2022-07-06T07:39:50;3.55;;;2.03;;
34491;SDS011;20737;49.908;8.126;2022-07-06T07:42:17;3.13;;;1.85;;
34491;SDS011;20737;49.908;8.126;2022-07-06T07:44:44;3.17;;;1.90;;
34491;SDS011;20737;49.908;8.126;2022-07-06T07:47:11;2.20;;;1.80;;
34491;SDS011;20737;49.908;8.126;2022-07-06T07:49:38;2.95;;;1.83;;
34491;SDS011;20737;49.908;8.126;2022-07-06T07:52:06;5.82;;;2.30;;
34491;SDS011;20737;49.908;8.126;2022-07-06T07:54:33;2.95;;;2.10;;
34491;SDS011;20737;49.908;8.126;2022-07-06T07:57:00;2.47;;;1.70;;
34491;SDS011;20737;49.908;8.126;2022-07-06T07:59:27;2.75;;;1.88;;
34491;SDS011;20737;49.908;8.126;2022-07-06T08:01:54;6.38;;;2.15;;
34491;SDS011;20737;49.908;8.126;2022-07-06T08:04:21;2.30;;;1.45;;
34491;SDS011;20737;49.908;8.126;2022-07-06T08:06:48;1.77;;;1.50;;
34491;SDS011;20737;49.908;8.126;2022-07-06T08:09:16;2.13;;;1.52;;
34491;SDS011;20737;49.908;8.126;2022-07-06T08:11:43;2.28;;;1.52;;
34491;SDS011;20737;49.908;8.126;2022-07-06T08:14:10;1.67;;;1.58;;
34491;SDS011;20737;49.908;8.126;2022-07-06T08:16:36;3.88;;;1.60;;
34491;SDS011;20737;49.908;8.126;2022-07-06T08:19:12;4.20;;;1.80;;
34491;SDS011;20737;49.908;8.126;2022-07-06T08:21:58;2.90;;;1.60;;
34491;SDS011;20737;49.908;8.126;2022-07-06T08:24:26;2.83;;;1.70;;
34491;SDS011;20737;49.908;8.126;2022-07-06T08:26:53;4.38;;;1.60;;
34491;SDS011;20737;49.908;8.126;2022-07-06T08:29:23;3.83;;;1.75;;
34491;SDS011;20737;49.908;8.126;2022-07-06T08:31:50;2.80;;;1.60;;
34491;SDS011;20737;49.908;8.126;2022-07-06T08:34:16;2.67;;;1.50;;
34491;SDS011;20737;49.908;8.126;2022-07-06T08:36:43;3.72;;;1.30;;
34491;SDS011;20737;49.908;8.126;2022-07-06T08:39:10;2.15;;;1.33;;
34491;SDS011;20737;49.908;8.126;2022-07-06T08:41:38;2.47;;;1.60;;
34491;SDS011;20737;49.908;8.126;2022-07-06T08:44:08;2.05;;;1.40;;
34491;SDS011;20737;49.908;8.126;2022-07-06T08:46:37;2.22;;;1.48;;
34491;SDS011;20737;49.908;8.126;2022-07-06T08:49:04;2.60;;;1.45;;
34491;SDS011;20737;49.908;8.126;2022-07-06T08:51:32;2.40;;;1.65;;
34491;SDS011;20737;49.908;8.126;2022-07-06T08:54:01;1.67;;;1.20;;
34491;SDS011;20737;49.908;8.126;2022-07-06T08:56:29;2.60;;;1.48;;
34491;SDS011;20737;49.908;8.126;2022-07-06T08:58:57;1.75;;;1.60;;
34491;SDS011;20737;49.908;8.126;2022-07-06T09:01:24;2.17;;;1.30;;
34491;SDS011;20737;49.908;8.126;2022-07-06T09:03:51;1.63;;;1.15;;
34491;SDS011;20737;49.908;8.126;2022-07-06T09:06:20;1.30;;;1.20;;
34491;SDS011;20737;49.908;8.126;2022-07-06T09:08:50;3.13;;;1.65;;
34491;SDS011;20737;49.908;8.126;2022-07-06T09:11:19;2.35;;;1.38;;
34491;SDS011;20737;49.908;8.126;2022-07-06T09:13:47;3.67;;;1.42;;
34491;SDS011;20737;49.908;8.126;2022-07-06T09:16:15;1.83;;;1.40;;
34491;SDS011;20737;49.908;8.126;2022-07-06T09:18:43;1.38;;;1.30;;
34491;SDS011;20737;49.908;8.126;2022-07-06T09:21:11;2.05;;;1.48;;
34491;SDS011;20737;49.908;8.126;2022-07-06T09:23:37;2.42;;;1.48;;
34491;SDS011;20737;49.908;8.126;2022-07-06T09:26:05;1.65;;;1.55;;
34491;SDS011;20737;49.908;8.126;2022-07-06T09:28:40;2.92;;;1.70;;
34491;SDS011;20737;49.908;8.126;2022-07-06T09:31:07;2.17;;;1.90;;
34491;SDS011;20737;49.908;8.126;2022-07-06T09:33:36;2.83;;;1.65;;
34491;SDS011;20737;49.908;8.126;2022-07-06T09:36:03;1.90;;;1.80;;
34491;SDS011;20737;49.908;8.126;2022-07-06T09:38:31;2.28;;;1.90;;
34491;SDS011;20737;49.908;8.126;2022-07-06T09:40:58;2.15;;;1.90;;
34491;SDS011;20737;49.908;8.126;2022-07-06T09:43:27;2.13;;;1.95;;
34491;SDS011;20737;49.908;8.126;2022-07-06T09:45:56;3.53;;;2.40;;
34491;SDS011;20737;49.908;8.126;2022-07-06T09:48:23;2.65;;;2.30;;
34491;SDS011;20737;49.908;8.126;2022-07-06T09:50:54;2.72;;;2.10;;
34491;SDS011;20737;49.908;8.126;2022-07-06T09:53:22;4.15;;;2.30;;
34491;SDS011;20737;49.908;8.126;2022-07-06T09:55:50;2.78;;;2.50;;
34491;SDS011;20737;49.908;8.126;2022-07-06T09:58:18;2.28;;;2.15;;
34491;SDS011;20737;49.908;8.126;2022-07-06T10:00:47;3.30;;;2.95;;
34491;SDS011;20737;49.908;8.126;2022-07-06T10:03:15;5.75;;;2.80;;
34491;SDS011;20737;49.908;8.126;2022-07-06T10:05:43;4.15;;;2.80;;
34491;SDS011;20737;49.908;8.126;2022-07-06T10:08:13;4.90;;;2.80;;
34491;SDS011;20737;49.908;8.126;2022-07-06T10:10:41;2.90;;;2.63;;
34491;SDS011;20737;49.908;8.126;2022-07-06T10:13:09;2.92;;;2.40;;
34491;SDS011;20737;49.908;8.126;2022-07-06T10:15:38;2.50;;;2.30;;
34491;SDS011;20737;49.908;8.126;2022-07-06T10:18:07;3.28;;;2.60;;
34491;SDS011;20737;49.908;8.126;2022-07-06T10:20:36;2.35;;;2.20;;
34491;SDS011;20737;49.908;8.126;2022-07-06T10:23:05;2.65;;;2.45;;
34491;SDS011;20737;49.908;8.126;2022-07-06T10:25:35;2.72;;;2.53;;
34491;SDS011;20737;49.908;8.126;2022-07-06T10:28:02;3.03;;;2.33;;
34491;SDS011;20737;49.908;8.126;2022-07-06T10:30:37;2.55;;;2.17;;
34491;SDS011;20737;49.908;8.126;2022-07-06T10:33:04;2.33;;;2.13;;
34491;SDS011;20737;49.908;8.126;2022-07-06T10:35:31;2.67;;;2.33;;
34491;SDS011;20737;49.908;8.126;2022-07-06T10:38:03;4.10;;;2.38;;
34491;SDS011;20737;49.908;8.126;2022-07-06T10:40:35;3.75;;;2.38;;
34491;SDS011;20737;49.908;8.126;2022-07-06T10:43:20;2.22;;;2.00;;
34491;SDS011;20737;49.908;8.126;2022-07-06T10:45:50;2.38;;;2.10;;
34491;SDS011;20737;49.908;8.126;2022-07-06T10:48:19;3.80;;;2.10;;
34491;SDS011;20737;49.908;8.126;2022-07-06T10:50:48;3.00;;;2.00;;
34491;SDS011;20737;49.908;8.126;2022-07-06T10:53:16;3.35;;;1.80;;
34491;SDS011;20737;49.908;8.126;2022-07-06T10:55:45;3.58;;;1.77;;
34491;SDS011;20737;49.908;8.126;2022-07-06T10:58:16;4.43;;;2.08;;
34491;SDS011;20737;49.908;8.126;2022-07-06T11:01:01;2.65;;;1.90;;
34491;SDS011;20737;49.908;8.126;2022-07-06T11:03:43;2.83;;;1.77;;
34491;SDS011;20737;49.908;8.126;2022-07-06T11:06:13;3.85;;;1.80;;
34491;SDS011;20737;49.908;8.126;2022-07-06T11:08:51;2.80;;;1.60;;
34491;SDS011;20737;49.908;8.126;2022-07-06T11:11:24;4.25;;;1.80;;
34491;SDS011;20737;49.908;8.126;2022-07-06T11:13:53;2.42;;;1.75;;
34491;SDS011;20737;49.908;8.126;2022-07-06T11:16:22;3.90;;;1.70;;
34491;SDS011;20737;49.908;8.126;2022-07-06T11:18:58;3.08;;;1.75;;
34491;SDS011;20737;49.908;8.126;2022-07-06T11:24:13;2.55;;;1.40;;
34491;SDS011;20737;49.908;8.126;2022-07-06T11:26:43;2.30;;;1.60;;
34491;SDS011;20737;49.908;8.126;2022-07-06T11:29:12;2.08;;;1.75;;
34491;SDS011;20737;49.908;8.126;2022-07-06T11:31:40;3.00;;;1.60;;
34491;SDS011;20737;49.908;8.126;2022-07-06T11:34:10;2.08;;;1.52;;
34491;SDS011;20737;49.908;8.126;2022-07-06T11:36:38;1.50;;;1.40;;
34491;SDS011;20737;49.908;8.126;2022-07-06T11:39:06;3.08;;;1.83;;
34491;SDS011;20737;49.908;8.126;2022-07-06T11:41:33;1.77;;;1.33;;
34491;SDS011;20737;49.908;8.126;2022-07-06T11:44:03;2.38;;;1.42;;
34491;SDS011;20737;49.908;8.126;2022-07-06T11:46:31;1.50;;;1.40;;
34491;SDS011;20737;49.908;8.126;2022-07-06T11:49:00;2.05;;;1.50;;
34491;SDS011;20737;49.908;8.126;2022-07-06T11:51:28;2.95;;;1.60;;
34491;SDS011;20737;49.908;8.126;2022-07-06T11:53:57;2.67;;;1.45;;
34491;SDS011;20737;49.908;8.126;2022-07-06T11:56:26;3.60;;;1.70;;
34491;SDS011;20737;49.908;8.126;2022-07-06T11:58:53;1.55;;;1.45;;
34491;SDS011;20737;49.908;8.126;2022-07-06T12:01:22;2.60;;;1.65;;
34491;SDS011;20737;49.908;8.126;2022-07-06T12:03:50;4.68;;;1.77;;
34491;SDS011;20737;49.908;8.126;2022-07-06T12:06:17;2.47;;;1.67;;
34491;SDS011;20737;49.908;8.126;2022-07-06T12:08:46;1.40;;;1.30;;
34491;SDS011;20737;49.908;8.126;2022-07-06T12:11:20;1.77;;;1.67;;
34491;SDS011;20737;49.908;8.126;2022-07-06T12:13:49;1.73;;;1.40;;
34491;SDS011;20737;49.908;8.126;2022-07-06T12:16:17;1.95;;;1.67;;
34491;SDS011;20737;49.908;8.126;2022-07-06T12:18:46;1.65;;;1.48;;
34491;SDS011;20737;49.908;8.126;2022-07-06T12:21:15;1.50;;;1.40;;
34491;SDS011;20737;49.908;8.126;2022-07-06T12:23:44;1.30;;;1.20;;
34491;SDS011;20737;49.908;8.126;2022-07-06T12:26:12;2.20;;;1.50;;
34491;SDS011;20737;49.908;8.126;2022-07-06T12:28:40;2.10;;;1.30;;
34491;SDS011;20737;49.908;8.126;2022-07-06T12:31:07;1.52;;;1.23;;
34491;SDS011;20737;49.908;8.126;2022-07-06T12:33:34;2.20;;;1.25;;
34491;SDS011;20737;49.908;8.126;2022-07-06T12:36:13;1.92;;;1.70;;
34491;SDS011;20737;49.908;8.126;2022-07-06T12:38:44;1.98;;;1.38;;
34491;SDS011;20737;49.908;8.126;2022-07-06T12:41:29;3.30;;;1.60;;
34491;SDS011;20737;49.908;8.126;2022-07-06T12:44:02;2.97;;;1.50;;
34491;SDS011;20737;49.908;8.126;2022-07-06T12:46:31;3.03;;;1.55;;
34491;SDS011;20737;49.908;8.126;2022-07-06T12:49:00;3.38;;;1.27;;
34491;SDS011;20737;49.908;8.126;2022-07-06T12:51:39;3.50;;;1.27;;
34491;SDS011;20737;49.908;8.126;2022-07-06T12:54:18;2.35;;;1.15;;
34491;SDS011;20737;49.908;8.126;2022-07-06T12:56:55;2.40;;;1.33;;
34491;SDS011;20737;49.908;8.126;2022-07-06T12:59:31;3.25;;;1.20;;
34491;SDS011;20737;49.908;8.126;2022-07-06T13:01:58;1.40;;;1.30;;
34491;SDS011;20737;49.908;8.126;2022-07-06T13:04:26;1.38;;;0.98;;
34491;SDS011;20737;49.908;8.126;2022-07-06T13:06:55;1.38;;;1.27;;
34491;SDS011;20737;49.908;8.126;2022-07-06T13:09:22;3.63;;;1.05;;
34491;SDS011;20737;49.908;8.126;2022-07-06T13:11:49;1.30;;;1.20;;
34491;SDS011;20737;49.908;8.126;2022-07-06T13:14:16;1.70;;;1.23;;
34491;SDS011;20737;49.908;8.126;2022-07-06T13:16:44;4.68;;;1.52;;
34491;SDS011;20737;49.908;8.126;2022-07-06T13:19:12;2.42;;;1.23;;
34491;SDS011;20737;49.908;8.126;2022-07-06T13:21:39;2.63;;;1.27;;
34491;SDS011;20737;49.908;8.126;2022-07-06T13:24:07;1.83;;;1.30;;
34491;SDS011;20737;49.908;8.126;2022-07-06T13:26:34;4.13;;;1.20;;
34491;SDS011;20737;49.908;8.126;2022-07-06T13:29:01;2.47;;;1.00;;
34491;SDS011;20737;49.908;8.126;2022-07-06T13:31:29;2.60;;;1.15;;
34491;SDS011;20737;49.908;8.126;2022-07-06T13:33:56;2.28;;;1.40;;
34491;SDS011;20737;49.908;8.126;2022-07-06T13:36:23;4.50;;;1.15;;
34491;SDS011;20737;49.908;8.126;2022-07-06T13:38:50;3.60;;;1.40;;
34491;SDS011;20737;49.908;8.126;2022-07-06T13:41:18;3.05;;;1.20;;
34491;SDS011;20737;49.908;8.126;2022-07-06T13:43:45;3.45;;;1.58;;
34491;SDS011;20737;49.908;8.126;2022-07-06T13:46:12;1.58;;;1.10;;
34491;SDS011;20737;49.908;8.126;2022-07-06T13:48:38;3.35;;;1.00;;
34491;SDS011;20737;49.908;8.126;2022-07-06T13:51:05;2.22;;;1.50;;
34491;SDS011;20737;49.908;8.126;2022-07-06T13:53:32;4.85;;;1.40;;
34491;SDS011;20737;49.908;8.126;2022-07-06T13:55:59;5.55;;;1.40;;
34491;SDS011;20737;49.908;8.126;2022-07-06T13:58:27;2.45;;;1.35;;
34491;SDS011;20737;49.908;8.126;2022-07-06T14:00:54;2.72;;;1.30;;
34491;SDS011;20737;49.908;8.126;2022-07-06T14:03:21;2.97;;;1.40;;
34491;SDS011;20737;49.908;8.126;2022-07-06T14:05:52;1.70;;;1.30;;
34491;SDS011;20737;49.908;8.126;2022-07-06T14:08:20;3.53;;;1.23;;
34491;SDS011;20737;49.908;8.126;2022-07-06T14:10:47;3.67;;;1.40;;
34491;SDS011;20737;49.908;8.126;2022-07-06T14:13:14;5.05;;;1.45;;
34491;SDS011;20737;49.908;8.126;2022-07-06T14:15:42;2.00;;;1.77;;
34491;SDS011;20737;49.908;8.126;2022-07-06T14:18:09;3.08;;;2.03;;
34491;SDS011;20737;49.908;8.126;2022-07-06T14:20:36;6.65;;;1.52;;
34491;SDS011;20737;49.908;8.126;2022-07-06T14:23:03;2.30;;;1.60;;
34491;SDS011;20737;49.908;8.126;2022-07-06T14:25:30;2.50;;;1.65;;
34491;SDS011;20737;49.908;8.126;2022-07-06T14:27:57;3.97;;;1.70;;
34491;SDS011;20737;49.908;8.126;2022-07-06T14:30:24;2.15;;;1.50;;
34491;SDS011;20737;49.908;8.126;2022-07-06T14:32:52;1.50;;;1.40;;
34491;SDS011;20737;49.908;8.126;2022-07-06T14:35:19;2.72;;;1.70;;
34491;SDS011;20737;49.908;8.126;2022-07-06T14:37:47;1.52;;;1.30;;
34491;SDS011;20737;49.908;8.126;2022-07-06T14:40:14;2.72;;;1.73;;
34491;SDS011;20737;49.908;8.126;2022-07-06T14:42:40;2.15;;;1.42;;
34491;SDS011;20737;49.908;8.126;2022-07-06T14:45:07;2.67;;;1.42;;
34491;SDS011;20737;49.908;8.126;2022-07-06T14:47:39;3.35;;;1.60;;
34491;SDS011;20737;49.908;8.126;2022-07-06T14:50:07;4.13;;;1.10;;
34491;SDS011;20737;49.908;8.126;2022-07-06T14:52:34;1.25;;;1.15;;
34491;SDS011;20737;49.908;8.126;2022-07-06T14:55:01;4.13;;;1.05;;
34491;SDS011;20737;49.908;8.126;2022-07-06T14:57:31;2.45;;;1.17;;